Time;durP1;ratioP1;P1;durP2;ratioP2;P2;SDS_P1;SDS_P2;PMS_P1;PMS_P2;Temp;Humidity;BMP_temperature;BMP_pressure;BME280_temperature;BME280_humidity;BME280_pressure;Samples;Min_cycle;Max_cycle;Signal;HPM_P1;HPM_P2
2021/09/23 00:01:05;;;;;;;8.77;7.97;;;9.30;99.90;;;;;;4869646;29;20656;-96
2021/09/23 00:09:22;;;;;;;9.60;8.70;;;9.20;99.90;;;;;;4871710;29;20698;-96
2021/09/23 00:11:55;;;;;;;9.37;8.57;;;9.20;99.90;;;;;;4871140;29;20631;-96
2021/09/23 00:20:15;;;;;;;8.43;7.60;;;9.10;99.90;;;;;;4871120;29;20715;-96
2021/09/23 00:22:42;;;;;;;8.90;8.10;;;9.10;99.90;;;;;;4874399;29;20643;-94
2021/09/23 00:25:11;;;;;;;9.83;9.03;;;9.00;99.90;;;;;;4870642;29;20718;-95
2021/09/23 00:27:42;;;;;;;10.77;9.50;;;9.00;99.90;;;;;;4870121;29;20743;-95
2021/09/23 00:30:16;;;;;;;11.00;10.00;;;9.10;99.90;;;;;;4868267;29;20688;-96
2021/09/23 00:32:49;;;;;;;9.90;9.17;;;9.00;99.90;;;;;;4875540;29;20642;-95
2021/09/23 00:35:48;;;;;;;11.67;10.40;;;8.90;99.90;;;;;;4871638;29;20636;-94
2021/09/23 00:38:24;;;;;;;9.73;9.00;;;9.00;99.90;;;;;;4849865;29;20695;-96
2021/09/23 00:40:53;;;;;;;10.43;9.60;;;9.00;99.90;;;;;;4859166;29;20679;-95
2021/09/23 00:43:20;;;;;;;11.00;9.97;;;9.00;99.90;;;;;;4847160;29;20639;-96
2021/09/23 00:45:51;;;;;;;10.33;9.40;;;9.00;99.90;;;;;;4867168;29;20654;-96
2021/09/23 00:48:18;;;;;;;10.80;9.83;;;9.00;99.90;;;;;;4855212;29;20691;-95
2021/09/23 00:50:45;;;;;;;9.80;9.20;;;9.00;99.90;;;;;;4859716;29;20695;-95
2021/09/23 00:53:14;;;;;;;12.27;9.90;;;9.00;99.90;;;;;;4866212;29;20651;-96
2021/09/23 00:55:44;;;;;;;10.90;9.90;;;8.90;99.90;;;;;;4858967;29;20639;-96
2021/09/23 00:58:11;;;;;;;10.50;9.60;;;8.90;99.90;;;;;;4853008;29;20751;-96
2021/09/23 01:01:20;;;;;;;10.43;9.43;;;8.80;99.90;;;;;;4858806;29;20793;-95
2021/09/23 01:03:56;;;;;;;10.90;10.00;;;8.80;99.90;;;;;;4857144;29;20657;-95
2021/09/23 01:06:25;;;;;;;10.57;9.70;;;8.80;99.90;;;;;;4844442;29;20694;-95
2021/09/23 01:08:55;;;;;;;9.90;9.03;;;8.80;99.90;;;;;;4848872;29;20727;-94
2021/09/23 01:11:23;;;;;;;10.20;9.20;;;8.70;99.90;;;;;;4850064;29;20667;-96
2021/09/23 01:13:52;;;;;;;8.43;7.73;;;8.70;99.90;;;;;;4858948;29;20730;-96
2021/09/23 01:16:20;;;;;;;9.90;8.93;;;8.70;99.90;;;;;;4851560;29;20647;-95
2021/09/23 01:18:49;;;;;;;9.60;8.73;;;8.70;99.90;;;;;;4866217;29;20632;-94
2021/09/23 01:21:17;;;;;;;10.27;9.47;;;8.70;99.90;;;;;;4868102;29;20681;-94
2021/09/23 01:23:45;;;;;;;10.30;9.37;;;8.70;99.90;;;;;;4855535;29;20650;-96
2021/09/23 01:26:17;;;;;;;11.60;9.40;;;8.60;99.90;;;;;;4869487;29;20646;-95
2021/09/23 01:28:45;;;;;;;9.27;8.47;;;8.50;99.90;;;;;;4868443;29;20646;-95
2021/09/23 01:31:13;;;;;;;9.80;9.00;;;8.60;99.90;;;;;;4863862;29;20690;-96
2021/09/23 01:36:24;;;;;;;10.67;9.87;;;8.60;99.90;;;;;;4855216;29;20761;-94
2021/09/23 01:38:53;;;;;;;10.30;9.53;;;8.60;99.90;;;;;;4860034;29;20649;-95
2021/09/23 01:41:20;;;;;;;9.53;8.63;;;8.50;99.90;;;;;;4851226;29;20752;-95
2021/09/23 01:43:47;;;;;;;10.57;9.57;;;8.50;99.90;;;;;;4852589;29;20639;-94
2021/09/23 01:46:14;;;;;;;11.07;10.17;;;8.50;99.90;;;;;;4863129;29;20658;-96
2021/09/23 01:48:41;;;;;;;9.37;8.47;;;8.50;99.90;;;;;;4852266;29;21187;-96
2021/09/23 01:51:18;;;;;;;10.70;9.77;;;8.40;99.90;;;;;;4859062;29;20750;-96
2021/09/23 01:54:11;;;;;;;10.37;9.67;;;8.50;99.90;;;;;;4861188;29;20642;-96
2021/09/23 01:59:21;;;;;;;11.27;10.10;;;8.50;99.90;;;;;;4852291;29;21595;-96
2021/09/23 02:01:49;;;;;;;10.13;9.40;;;8.40;99.90;;;;;;4860838;29;20657;-96
2021/09/23 02:04:19;;;;;;;10.73;9.83;;;8.40;99.90;;;;;;4868564;29;20627;-96
2021/09/23 02:06:47;;;;;;;9.90;9.10;;;8.40;99.90;;;;;;4860109;29;20650;-96
2021/09/23 02:09:17;;;;;;;10.03;9.20;;;8.40;99.90;;;;;;4863730;29;20647;-96
2021/09/23 02:11:44;;;;;;;10.13;9.23;;;8.40;99.90;;;;;;4862696;29;20632;-96
2021/09/23 02:14:12;;;;;;;10.27;9.37;;;8.30;99.90;;;;;;4855508;29;20732;-96
2021/09/23 02:16:40;;;;;;;10.87;9.97;;;8.30;99.90;;;;;;4856589;29;20659;-96
2021/09/23 02:19:10;;;;;;;10.30;9.40;;;8.20;99.90;;;;;;4857134;29;21194;-95
2021/09/23 02:21:37;;;;;;;9.93;9.23;;;8.30;99.90;;;;;;4861433;29;20663;-96
2021/09/23 02:24:04;;;;;;;10.73;9.80;;;8.30;99.90;;;;;;4856737;29;20687;-95
2021/09/23 02:26:39;;;;;;;10.60;9.80;;;8.30;99.90;;;;;;4851582;29;20652;-95
2021/09/23 02:29:06;;;;;;;10.40;9.50;;;8.20;99.90;;;;;;4847741;29;20651;-94
2021/09/23 02:31:34;;;;;;;12.17;11.10;;;8.20;99.90;;;;;;4845485;29;21206;-94
2021/09/23 02:34:01;;;;;;;11.17;10.37;;;8.20;99.90;;;;;;4849383;29;20650;-95
2021/09/23 02:36:28;;;;;;;11.83;10.83;;;8.20;99.90;;;;;;4849467;29;20708;-94
2021/09/23 02:38:55;;;;;;;10.43;9.63;;;8.20;99.90;;;;;;4847342;29;20642;-94
2021/09/23 02:41:27;;;;;;;11.53;10.60;;;8.10;99.90;;;;;;4848459;29;20690;-94
2021/09/23 02:43:56;;;;;;;10.93;10.03;;;8.10;99.90;;;;;;4845294;29;20646;-95
2021/09/23 02:46:23;;;;;;;11.67;10.67;;;8.10;99.90;;;;;;4852374;29;20649;-95
2021/09/23 02:48:55;;;;;;;13.10;11.90;;;8.10;99.90;;;;;;4846985;29;20665;-95
2021/09/23 02:51:23;;;;;;;11.27;10.27;;;8.10;99.90;;;;;;4857637;29;20655;-95
2021/09/23 02:53:50;;;;;;;12.70;11.60;;;8.10;99.90;;;;;;4849015;29;20657;-95
2021/09/23 02:56:19;;;;;;;12.50;11.17;;;8.00;99.90;;;;;;4855964;29;20643;-95
2021/09/23 02:58:47;;;;;;;12.00;11.00;;;8.00;99.90;;;;;;4848799;29;20651;-96
2021/09/23 03:01:16;;;;;;;11.40;10.43;;;8.00;99.90;;;;;;4849779;29;20797;-94
2021/09/23 03:03:43;;;;;;;11.90;10.80;;;8.00;99.90;;;;;;4855779;29;20648;-95
2021/09/23 03:06:11;;;;;;;13.40;11.97;;;8.00;99.90;;;;;;4844047;29;21015;-95
2021/09/23 03:08:39;;;;;;;12.90;11.90;;;8.00;99.90;;;;;;4850244;29;21198;-94
2021/09/23 03:11:08;;;;;;;12.10;10.97;;;8.00;99.90;;;;;;4845363;29;20659;-93
2021/09/23 03:13:35;;;;;;;12.97;11.87;;;8.00;99.90;;;;;;4845553;29;20616;-94
2021/09/23 03:16:02;;;;;;;11.73;10.73;;;8.00;99.90;;;;;;4848264;29;20647;-94
2021/09/23 03:18:31;;;;;;;11.30;10.40;;;7.90;99.90;;;;;;4849103;29;20632;-94
2021/09/23 03:20:58;;;;;;;11.20;10.27;;;7.80;99.90;;;;;;4843265;29;20703;-94
2021/09/23 03:23:38;;;;;;;10.60;9.70;;;7.80;99.90;;;;;;4846134;29;20646;-95
2021/09/23 03:26:05;;;;;;;11.63;10.80;;;7.80;99.90;;;;;;4847602;29;20649;-93
2021/09/23 03:28:34;;;;;;;12.37;11.27;;;7.80;99.90;;;;;;4843101;29;20628;-94
2021/09/23 03:31:01;;;;;;;12.23;11.23;;;7.80;99.90;;;;;;4845198;29;21092;-96
2021/09/23 03:33:38;;;;;;;12.63;11.53;;;7.80;99.90;;;;;;4850408;29;21190;-95
2021/09/23 03:36:05;;;;;;;10.90;10.00;;;7.90;99.90;;;;;;4850207;29;21575;-94
2021/09/23 03:38:32;;;;;;;11.83;10.70;;;7.80;99.90;;;;;;4855839;29;21252;-93
2021/09/23 03:41:05;;;;;;;10.40;9.60;;;7.70;99.90;;;;;;4848189;29;20675;-94
2021/09/23 03:43:32;;;;;;;11.17;10.27;;;7.70;99.90;;;;;;4855461;29;20623;-94
2021/09/23 03:46:04;;;;;;;11.00;9.90;;;7.60;99.90;;;;;;4858618;29;20739;-93
2021/09/23 03:48:33;;;;;;;11.93;11.13;;;7.60;99.90;;;;;;4866852;29;20665;-94
2021/09/23 03:51:00;;;;;;;13.70;12.33;;;7.70;99.90;;;;;;4858715;29;20733;-94
2021/09/23 03:53:28;;;;;;;13.67;12.50;;;7.80;99.90;;;;;;4862199;29;20644;-93
2021/09/23 03:55:59;;;;;;;13.40;12.20;;;7.90;99.90;;;;;;4872587;29;20700;-94
2021/09/23 03:58:26;;;;;;;12.20;11.10;;;7.70;99.90;;;;;;4873230;29;20638;-94
2021/09/23 04:00:54;;;;;;;12.23;11.30;;;7.70;99.90;;;;;;4869516;29;20714;-95
2021/09/23 04:03:22;;;;;;;12.60;11.60;;;7.60;99.90;;;;;;4863313;29;20734;-94
2021/09/23 04:06:01;;;;;;;13.60;12.50;;;7.60;99.90;;;;;;4863992;29;20644;-95
2021/09/23 04:08:28;;;;;;;13.00;11.70;;;7.60;99.90;;;;;;4847527;29;20631;-93
2021/09/23 04:10:55;;;;;;;14.03;12.77;;;7.60;99.90;;;;;;4860898;29;20692;-93
2021/09/23 04:13:23;;;;;;;13.80;12.77;;;7.60;99.90;;;;;;4855124;29;20732;-96
2021/09/23 04:15:53;;;;;;;13.87;12.47;;;7.50;99.90;;;;;;4858384;29;20647;-95
2021/09/23 04:18:20;;;;;;;13.43;12.33;;;7.60;99.90;;;;;;4860091;29;20618;-93
2021/09/23 04:20:49;;;;;;;15.20;13.70;;;7.60;99.90;;;;;;4847483;29;20678;-94
2021/09/23 04:23:18;;;;;;;14.27;13.07;;;7.60;99.90;;;;;;4847823;29;20675;-95
2021/09/23 04:25:45;;;;;;;16.20;14.73;;;7.60;99.90;;;;;;4859508;29;20667;-96
2021/09/23 04:28:12;;;;;;;14.83;13.43;;;7.50;99.90;;;;;;4852065;29;20742;-94
2021/09/23 04:30:45;;;;;;;15.40;14.00;;;7.50;99.90;;;;;;4856036;29;20761;-95
2021/09/23 04:33:12;;;;;;;14.63;13.40;;;7.50;99.90;;;;;;4847769;29;20640;-94
2021/09/23 04:35:45;;;;;;;12.50;11.53;;;7.40;99.90;;;;;;4855058;29;21138;-94
2021/09/23 04:38:17;;;;;;;13.30;12.10;;;7.30;99.90;;;;;;4859327;29;20655;-96
2021/09/23 04:41:01;;;;;;;13.80;12.63;;;7.30;99.90;;;;;;4861492;29;20682;-96
2021/09/23 04:43:29;;;;;;;14.20;12.90;;;7.40;99.90;;;;;;4855043;29;20670;-96
2021/09/23 04:46:04;;;;;;;14.10;12.70;;;7.30;99.90;;;;;;4849880;29;21092;-94
2021/09/23 04:48:34;;;;;;;14.73;13.17;;;7.40;99.90;;;;;;4862678;29;20665;-95
2021/09/23 04:56:53;;;;;;;14.20;12.80;;;7.50;99.90;;;;;;5009065;23;20744;-95
2021/09/23 04:59:20;;;;;;;13.77;12.53;;;7.40;99.90;;;;;;4888709;29;20717;-95
2021/09/23 05:04:45;;;;;;;11.33;10.30;;;7.30;99.90;;;;;;4890529;29;20730;-96
2021/09/23 05:07:14;;;;;;;11.37;10.47;;;7.20;99.90;;;;;;4883556;29;20673;-94
2021/09/23 05:09:43;;;;;;;12.00;11.10;;;7.10;99.90;;;;;;4883642;29;20644;-96
2021/09/23 05:12:15;;;;;;;13.07;12.07;;;7.10;99.90;;;;;;4883889;29;21004;-95
2021/09/23 05:17:24;;;;;;;11.90;11.03;;;7.10;99.90;;;;;;4880702;29;20630;-95
2021/09/23 05:19:55;;;;;;;10.40;9.50;;;7.10;99.90;;;;;;4874662;29;20740;-93
2021/09/23 05:22:27;;;;;;;12.20;11.00;;;7.20;99.90;;;;;;4870188;29;20670;-92
2021/09/23 05:24:54;;;;;;;11.30;10.40;;;7.20;99.90;;;;;;4877181;29;20701;-92
2021/09/23 05:27:22;;;;;;;11.57;10.67;;;7.20;99.90;;;;;;4868676;29;20692;-93
2021/09/23 05:29:59;;;;;;;13.33;12.23;;;7.20;99.90;;;;;;4876683;29;21051;-93
2021/09/23 05:32:26;;;;;;;12.07;10.87;;;7.20;99.90;;;;;;4867980;29;20646;-93
2021/09/23 05:34:54;;;;;;;12.10;11.00;;;7.30;99.90;;;;;;4875322;29;20657;-93
2021/09/23 05:37:26;;;;;;;12.57;11.30;;;7.40;99.90;;;;;;4875106;29;20646;-93
2021/09/23 05:40:01;;;;;;;11.37;10.47;;;7.30;99.90;;;;;;4883018;29;20688;-94
2021/09/23 05:42:29;;;;;;;11.50;10.30;;;7.30;99.90;;;;;;4879979;29;20668;-93
2021/09/23 05:45:06;;;;;;;11.23;10.33;;;7.30;99.90;;;;;;4881663;29;20644;-93
2021/09/23 05:47:38;;;;;;;11.37;10.37;;;7.30;99.90;;;;;;4863962;29;20674;-94
2021/09/23 05:50:16;;;;;;;12.47;10.40;;;7.30;99.90;;;;;;4888268;29;21076;-94
2021/09/23 05:52:44;;;;;;;11.43;10.10;;;7.30;99.90;;;;;;4880289;29;20638;-95
2021/09/23 05:55:12;;;;;;;11.57;10.57;;;7.30;99.90;;;;;;4876183;29;20659;-94
2021/09/23 05:57:42;;;;;;;10.57;9.73;;;7.40;99.90;;;;;;4879096;29;21333;-94
2021/09/23 06:00:14;;;;;;;10.90;10.13;;;7.40;99.90;;;;;;4878022;29;20690;-96
2021/09/23 06:02:42;;;;;;;12.90;11.90;;;7.50;99.90;;;;;;4897727;29;20646;-94
2021/09/23 06:05:13;;;;;;;11.37;10.57;;;7.50;99.90;;;;;;4897199;29;20618;-94
2021/09/23 06:07:41;;;;;;;12.40;11.30;;;7.60;99.90;;;;;;4885184;29;20634;-94
2021/09/23 06:10:11;;;;;;;12.77;11.57;;;7.60;99.90;;;;;;4892088;29;20689;-95
2021/09/23 06:12:38;;;;;;;11.23;10.33;;;7.60;99.90;;;;;;4897617;29;20764;-93
2021/09/23 06:15:09;;;;;;;12.63;11.43;;;7.70;99.90;;;;;;4879506;29;20700;-94
2021/09/23 06:17:39;;;;;;;12.40;11.27;;;7.70;99.90;;;;;;4890144;29;20647;-94
2021/09/23 06:20:20;;;;;;;12.00;10.93;;;7.70;99.90;;;;;;4880027;29;20671;-94
2021/09/23 06:22:47;;;;;;;12.10;11.10;;;7.80;99.90;;;;;;4884269;29;20658;-94
2021/09/23 06:25:20;;;;;;;13.80;12.43;;;8.00;99.90;;;;;;4881462;29;20637;-93
2021/09/23 06:27:48;;;;;;;14.03;12.77;;;8.00;99.90;;;;;;4877634;29;20642;-94
2021/09/23 06:30:25;;;;;;;13.87;12.77;;;8.10;99.90;;;;;;4892761;29;20644;-95
2021/09/23 06:32:58;;;;;;;12.10;11.00;;;8.20;99.90;;;;;;4901792;29;20604;-93
2021/09/23 06:35:25;;;;;;;12.80;11.67;;;8.40;99.90;;;;;;4888807;29;20647;-94
2021/09/23 06:37:57;;;;;;;12.70;11.70;;;8.50;99.90;;;;;;4890080;29;20689;-95
2021/09/23 06:40:24;;;;;;;14.10;12.80;;;8.70;99.90;;;;;;4889091;29;20633;-94
2021/09/23 06:45:34;;;;;;;13.60;12.27;;;8.90;99.90;;;;;;4887452;29;20641;-95
2021/09/23 06:48:01;;;;;;;13.43;12.40;;;9.00;99.90;;;;;;4882462;29;20724;-94
2021/09/23 06:50:33;;;;;;;14.33;13.10;;;9.20;99.90;;;;;;4881417;29;20642;-94
2021/09/23 06:53:02;;;;;;;13.63;12.53;;;9.30;99.90;;;;;;4875273;29;20671;-92
2021/09/23 06:55:32;;;;;;;14.23;12.90;;;9.40;99.90;;;;;;4880059;29;20650;-94
2021/09/23 06:58:08;;;;;;;14.50;13.40;;;9.60;99.90;;;;;;4880503;29;20634;-94
2021/09/23 07:00:40;;;;;;;15.33;13.80;;;9.70;99.90;;;;;;4883754;29;20631;-94
2021/09/23 07:03:08;;;;;;;13.60;12.60;;;9.90;99.90;;;;;;4885135;29;20666;-94
2021/09/23 07:05:43;;;;;;;14.40;13.13;;;10.00;99.90;;;;;;4881546;29;20641;-94
2021/09/23 07:08:27;;;;;;;14.87;13.47;;;10.20;99.90;;;;;;4894040;29;20685;-94
2021/09/23 07:13:35;;;;;;;16.60;15.07;;;10.50;99.90;;;;;;4891633;29;20737;-94
2021/09/23 07:16:11;;;;;;;13.80;12.50;;;10.60;99.90;;;;;;4891910;29;20652;-94
2021/09/23 07:18:47;;;;;;;13.57;12.10;;;10.60;99.90;;;;;;4888410;29;20680;-94
2021/09/23 07:21:26;;;;;;;13.20;12.10;;;10.60;99.90;;;;;;4890385;29;21215;-94
2021/09/23 07:23:56;;;;;;;14.20;11.87;;;10.70;99.90;;;;;;4889056;29;20684;-94
2021/09/23 07:26:31;;;;;;;13.70;11.73;;;10.80;99.90;;;;;;4888484;29;20649;-95
2021/09/23 07:41:24;;;;;;;11.87;10.60;;;12.00;99.90;;;;;;4884205;29;20621;-94
2021/09/23 07:43:54;;;;;;;10.97;9.87;;;11.90;99.90;;;;;;4879031;29;20700;-95
2021/09/23 07:49:13;;;;;;;14.30;11.10;;;12.10;99.90;;;;;;4880380;29;20638;-94
2021/09/23 07:51:45;;;;;;;14.23;11.20;;;12.20;99.90;;;;;;4881290;29;20701;-95
2021/09/23 07:54:25;;;;;;;13.27;11.97;;;12.30;99.90;;;;;;4886884;29;20644;-95
2021/09/23 07:56:54;;;;;;;12.27;10.53;;;12.50;99.90;;;;;;4882281;29;21182;-95
2021/09/23 07:59:28;;;;;;;11.87;10.63;;;12.60;99.90;;;;;;4885150;29;20649;-94
2021/09/23 08:02:01;;;;;;;11.73;10.73;;;12.70;99.90;;;;;;4875411;29;20659;-95
2021/09/23 08:04:32;;;;;;;20.63;11.53;;;12.90;99.90;;;;;;4885004;29;20733;-95
2021/09/23 08:06:59;;;;;;;12.70;11.47;;;13.10;99.90;;;;;;4884106;29;20654;-95
2021/09/23 08:09:28;;;;;;;12.13;10.53;;;13.30;99.90;;;;;;4881396;29;20701;-95
2021/09/23 08:11:56;;;;;;;12.43;10.03;;;13.60;99.90;;;;;;4878944;29;20742;-95
2021/09/23 08:14:37;;;;;;;10.60;9.70;;;13.80;99.90;;;;;;4885886;29;20673;-95
2021/09/23 08:25:43;;;;;;;10.53;9.60;;;14.50;99.90;;;;;;4888899;29;20621;-94
2021/09/23 08:28:42;;;;;;;10.23;9.30;;;14.80;99.90;;;;;;4883756;29;20672;-95
2021/09/23 08:34:10;;;;;;;10.77;9.20;;;14.80;99.90;;;;;;5061430;27;20779;-94
2021/09/23 08:36:39;;;;;;;9.83;8.93;;;15.40;99.90;;;;;;5104903;27;20651;-93
2021/09/23 08:39:10;;;;;;;9.10;8.23;;;15.40;99.90;;;;;;5053797;27;20949;-91
2021/09/23 08:41:41;;;;;;;9.00;8.10;;;15.40;99.90;;;;;;5043557;27;20634;-92
2021/09/23 08:46:54;;;;;;;8.60;7.90;;;15.60;99.90;;;;;;5059299;27;20630;-92
2021/09/23 08:49:23;;;;;;;9.20;7.70;;;15.90;99.90;;;;;;5048213;27;20641;-92
2021/09/23 08:51:50;;;;;;;8.73;7.83;;;16.20;99.90;;;;;;5054970;27;20630;-90
2021/09/23 08:54:18;;;;;;;8.23;7.53;;;16.40;99.90;;;;;;5066530;27;20614;-91
2021/09/23 08:56:45;;;;;;;9.00;7.90;;;16.20;99.90;;;;;;5041097;27;21020;-90
2021/09/23 08:59:13;;;;;;;7.90;7.10;;;16.40;99.90;;;;;;5058976;27;20643;-90
2021/09/23 09:01:51;;;;;;;8.57;7.77;;;16.80;99.90;;;;;;5073421;27;20582;-93
2021/09/23 09:04:20;;;;;;;7.80;6.70;;;16.70;99.90;;;;;;5034440;27;21163;-90
2021/09/23 09:06:55;;;;;;;8.03;5.90;;;16.70;99.90;;;;;;5069238;27;20629;-91
2021/09/23 09:09:23;;;;;;;10.30;7.20;;;16.90;99.90;;;;;;5040993;27;20639;-92
2021/09/23 09:11:54;;;;;;;7.43;6.73;;;17.00;99.90;;;;;;5060397;27;20655;-91
2021/09/23 09:14:32;;;;;;;7.73;6.87;;;16.80;99.90;;;;;;5042403;27;20665;-90
2021/09/23 09:17:03;;;;;;;9.23;7.00;;;17.10;99.90;;;;;;5075306;27;20627;-92
2021/09/23 09:19:45;;;;;;;7.67;6.30;;;17.40;99.90;;;;;;5073349;27;20741;-92
2021/09/23 09:22:16;;;;;;;7.03;6.33;;;17.00;99.90;;;;;;5068116;27;20630;-91
2021/09/23 09:24:53;;;;;;;5.87;5.27;;;17.10;99.90;;;;;;5061227;27;20637;-91
2021/09/23 09:27:33;;;;;;;6.53;5.40;;;17.10;99.90;;;;;;5058745;27;20625;-91
2021/09/23 09:30:07;;;;;;;7.80;4.47;;;17.40;99.90;;;;;;5052647;27;20661;-90
2021/09/23 09:32:45;;;;;;;6.07;5.47;;;17.50;99.90;;;;;;5055221;27;20686;-91
2021/09/23 09:35:18;;;;;;;6.77;5.47;;;17.70;99.90;;;;;;5074781;27;20640;-91
2021/09/23 09:38:03;;;;;;;4.73;4.20;;;18.00;99.90;;;;;;5076806;27;21039;-91
2021/09/23 09:40:35;;;;;;;5.30;4.80;;;18.10;99.90;;;;;;5037977;27;21172;-92
2021/09/23 09:43:05;;;;;;;5.00;4.60;;;18.70;99.90;;;;;;5060600;27;20642;-92
2021/09/23 09:45:34;;;;;;;4.63;4.00;;;18.80;99.90;;;;;;5049469;27;20645;-91
2021/09/23 09:48:03;;;;;;;6.67;5.27;;;18.90;99.90;;;;;;5040790;27;20629;-91
2021/09/23 09:50:32;;;;;;;5.80;4.77;;;18.80;99.90;;;;;;5069067;27;20633;-91
2021/09/23 09:53:01;;;;;;;5.37;4.80;;;19.00;99.90;;;;;;5032664;27;20980;-91
2021/09/23 09:55:33;;;;;;;8.03;4.40;;;19.40;99.90;;;;;;5059568;27;20657;-93
2021/09/23 09:58:01;;;;;;;6.90;5.27;;;19.40;99.90;;;;;;5044273;27;20663;-92
2021/09/23 10:00:30;;;;;;;6.30;5.10;;;19.40;99.90;;;;;;5071405;27;20713;-92
2021/09/23 10:02:58;;;;;;;5.77;4.47;;;19.50;99.90;;;;;;5061865;27;20718;-91
2021/09/23 10:05:26;;;;;;;4.77;4.37;;;20.00;99.90;;;;;;5050310;27;20644;-91
2021/09/23 10:07:56;;;;;;;6.70;4.50;;;19.90;99.90;;;;;;5037648;27;20643;-92
2021/09/23 10:10:28;;;;;;;6.43;5.27;;;20.10;99.90;;;;;;5046135;27;20633;-92
2021/09/23 10:12:59;;;;;;;5.43;4.70;;;20.10;99.90;;;;;;5057206;27;20706;-92
2021/09/23 10:15:27;;;;;;;4.87;4.37;;;20.20;99.90;;;;;;5042093;27;20621;-91
2021/09/23 10:17:59;;;;;;;5.10;4.40;;;20.50;99.90;;;;;;5023492;27;20764;-92
2021/09/23 10:20:28;;;;;;;5.03;4.50;;;20.60;99.90;;;;;;5028889;27;20623;-91
2021/09/23 10:22:56;;;;;;;6.03;4.40;;;20.60;99.90;;;;;;5072304;27;21020;-90
2021/09/23 10:25:27;;;;;;;4.87;4.37;;;20.60;99.90;;;;;;5040633;27;20678;-91
2021/09/23 10:27:59;;;;;;;4.83;3.80;;;20.90;99.90;;;;;;5028239;27;20629;-90
2021/09/23 10:30:32;;;;;;;3.73;3.53;;;21.10;99.90;;;;;;5037077;27;20626;-91
2021/09/23 10:33:00;;;;;;;4.80;3.90;;;20.90;99.90;;;;;;5035227;27;20678;-91
2021/09/23 10:35:29;;;;;;;5.93;3.50;;;21.20;99.90;;;;;;5032964;27;20819;-90
2021/09/23 10:37:58;;;;;;;4.80;3.70;;;21.50;99.90;;;;;;5029094;27;20716;-91
2021/09/23 10:40:26;;;;;;;3.70;3.30;;;21.70;99.10;;;;;;5051697;27;20801;-91
2021/09/23 10:42:56;;;;;;;4.30;3.90;;;22.00;99.00;;;;;;5065980;27;20663;-91
2021/09/23 10:45:27;;;;;;;5.37;3.20;;;21.80;99.90;;;;;;5036222;27;20618;-92
2021/09/23 10:47:58;;;;;;;4.30;3.77;;;22.20;98.20;;;;;;5027688;28;20663;-91
2021/09/23 10:50:27;;;;;;;3.97;3.57;;;22.20;98.10;;;;;;5049107;27;20786;-92
2021/09/23 10:52:55;;;;;;;6.73;3.67;;;22.50;99.30;;;;;;5031006;27;20643;-91
2021/09/23 10:55:24;;;;;;;3.83;3.03;;;23.00;96.80;;;;;;5064321;27;20583;-90
2021/09/23 10:57:53;;;;;;;4.27;3.63;;;23.10;96.50;;;;;;5029660;27;20626;-91
2021/09/23 11:00:28;;;;;;;7.90;3.40;;;23.30;95.30;;;;;;5039652;27;20705;-92
2021/09/23 11:02:57;;;;;;;3.30;2.80;;;23.40;94.20;;;;;;5053773;27;21339;-91
2021/09/23 11:05:25;;;;;;;4.20;2.73;;;23.50;97.10;;;;;;5033580;27;21290;-91
2021/09/23 11:07:54;;;;;;;6.47;3.33;;;23.80;95.50;;;;;;5044724;27;20638;-90
2021/09/23 11:10:23;;;;;;;3.30;2.70;;;23.90;95.10;;;;;;5043087;27;20646;-90
2021/09/23 11:12:53;;;;;;;4.60;3.27;;;24.30;93.50;;;;;;5043093;27;20650;-90
2021/09/23 11:15:23;;;;;;;3.27;2.97;;;24.40;93.60;;;;;;5035868;27;20626;-90
2021/09/23 11:17:51;;;;;;;3.63;2.70;;;24.40;93.00;;;;;;5033059;27;20713;-91
2021/09/23 11:20:21;;;;;;;4.70;3.10;;;24.90;93.00;;;;;;5030155;27;20623;-90
2021/09/23 11:22:50;;;;;;;3.73;2.10;;;25.30;91.30;;;;;;5050024;27;20736;-91
2021/09/23 11:25:21;;;;;;;4.70;2.80;;;25.30;87.80;;;;;;5033078;27;21216;-91
2021/09/23 11:27:50;;;;;;;2.70;2.30;;;25.10;87.70;;;;;;5022106;27;20641;-91
2021/09/23 11:30:19;;;;;;;3.53;2.47;;;25.50;87.10;;;;;;5035402;27;21041;-91
2021/09/23 11:32:50;;;;;;;2.50;2.30;;;25.20;88.20;;;;;;5062662;27;20750;-91
2021/09/23 11:35:19;;;;;;;2.60;2.40;;;25.60;88.20;;;;;;5030244;27;20626;-91
2021/09/23 11:37:47;;;;;;;2.53;2.33;;;25.70;85.90;;;;;;5070709;27;20630;-91
2021/09/23 11:40:20;;;;;;;2.67;2.47;;;26.00;83.80;;;;;;5038555;27;20607;-91
2021/09/23 11:42:47;;;;;;;2.70;2.27;;;26.30;83.70;;;;;;5036341;27;21262;-92
2021/09/23 11:45:16;;;;;;;4.63;2.40;;;26.50;80.10;;;;;;5051029;27;20638;-92
2021/09/23 11:47:52;;;;;;;2.70;1.90;;;26.00;80.30;;;;;;5035828;27;20629;-92
2021/09/23 11:50:27;;;;;;;4.60;2.43;;;26.20;82.50;;;;;;5069261;27;20618;-92
2021/09/23 11:52:56;;;;;;;2.40;2.20;;;26.20;80.70;;;;;;5047986;27;20663;-91
2021/09/23 11:55:24;;;;;;;3.30;3.00;;;26.80;78.50;;;;;;5030811;27;20725;-91
2021/09/23 11:58:01;;;;;;;2.77;2.50;;;27.50;77.60;;;;;;5035090;27;20657;-93
2021/09/23 12:00:33;;;;;;;2.63;2.20;;;27.50;75.00;;;;;;5050821;27;20821;-93
2021/09/23 12:03:00;;;;;;;2.37;2.00;;;27.30;73.70;;;;;;5023398;28;20785;-92
2021/09/23 12:05:30;;;;;;;2.40;2.30;;;27.70;71.90;;;;;;5026261;27;20592;-92
2021/09/23 12:07:58;;;;;;;2.90;2.20;;;27.80;71.90;;;;;;5049337;27;21017;-92
2021/09/23 12:10:25;;;;;;;2.63;2.40;;;28.00;72.60;;;;;;5066775;27;20623;-91
2021/09/23 12:12:56;;;;;;;3.20;3.00;;;28.40;69.20;;;;;;5054468;27;22035;-92
2021/09/23 12:15:24;;;;;;;2.90;2.13;;;27.90;68.10;;;;;;5028715;27;20635;-92
2021/09/23 12:17:55;;;;;;;4.07;2.13;;;28.00;67.40;;;;;;5044792;27;20624;-92
2021/09/23 12:20:36;;;;;;;2.43;2.23;;;28.30;66.20;;;;;;5034552;28;20623;-92
2021/09/23 12:23:28;;;;;;;2.73;2.53;;;29.10;61.40;;;;;;5034003;28;20662;-92
2021/09/23 12:26:11;;;;;;;2.63;2.30;;;29.30;61.80;;;;;;5030677;27;20693;-93
2021/09/23 12:28:44;;;;;;;2.60;2.40;;;29.70;59.20;;;;;;5026777;27;20980;-92
2021/09/23 12:31:13;;;;;;;2.43;2.23;;;29.80;56.90;;;;;;5039951;28;20681;-94
2021/09/23 12:33:53;;;;;;;2.70;2.20;;;29.70;56.30;;;;;;5022487;28;20677;-93
2021/09/23 12:36:27;;;;;;;2.20;2.00;;;29.60;57.10;;;;;;5052672;27;20626;-93
2021/09/23 12:39:25;;;;;;;2.57;2.40;;;30.10;55.20;;;;;;5043754;27;20718;-92
2021/09/23 12:42:07;;;;;;;2.10;2.00;;;29.90;54.50;;;;;;5039761;28;20630;-93
2021/09/23 12:44:36;;;;;;;3.73;2.23;;;29.90;52.50;;;;;;5021486;28;20675;-94
2021/09/23 12:47:08;;;;;;;3.30;2.40;;;30.30;52.80;;;;;;5028020;27;20657;-94
2021/09/23 12:49:36;;;;;;;2.07;1.90;;;30.40;52.40;;;;;;5061433;28;20672;-93
2021/09/23 12:52:30;;;;;;;2.20;2.03;;;30.70;51.90;;;;;;5082259;28;20657;-94
2021/09/23 12:55:00;;;;;;;2.23;2.03;;;30.70;50.60;;;;;;5039875;27;20619;-94
2021/09/23 12:57:28;;;;;;;3.90;2.30;;;30.50;52.00;;;;;;5050379;27;20652;-93
2021/09/23 13:00:09;;;;;;;2.80;2.60;;;30.50;50.90;;;;;;5057859;27;21045;-95
2021/09/23 13:02:37;;;;;;;1.73;1.63;;;30.80;50.10;;;;;;5029971;28;20649;-93
2021/09/23 13:05:08;;;;;;;3.70;2.20;;;30.90;50.90;;;;;;5023353;28;20992;-93
2021/09/23 13:07:48;;;;;;;3.73;2.17;;;30.50;49.90;;;;;;5025106;28;21076;-94
2021/09/23 13:10:17;;;;;;;2.20;2.00;;;30.50;50.00;;;;;;5036652;28;20630;-94
2021/09/23 13:12:46;;;;;;;2.53;2.33;;;31.00;49.30;;;;;;5033483;27;21005;-93
2021/09/23 13:15:24;;;;;;;2.60;2.40;;;31.20;48.60;;;;;;5037852;28;20736;-94
2021/09/23 13:18:07;;;;;;;2.60;2.40;;;31.10;47.60;;;;;;5030530;27;20670;-94
2021/09/23 13:20:37;;;;;;;2.40;2.20;;;31.00;47.60;;;;;;5036686;27;20202;-94
2021/09/23 13:23:05;;;;;;;2.80;2.20;;;30.50;48.20;;;;;;5044869;27;21001;-94
2021/09/23 13:25:34;;;;;;;2.43;2.23;;;30.70;48.20;;;;;;5043980;27;20876;-95
2021/09/23 13:28:01;;;;;;;1.90;1.80;;;31.40;47.80;;;;;;5023313;27;20631;-94
2021/09/23 13:30:28;;;;;;;2.37;2.27;;;31.40;47.80;;;;;;5033960;27;21167;-94
2021/09/23 13:32:55;;;;;;;2.87;2.57;;;30.70;46.90;;;;;;5031827;27;20773;-95
2021/09/23 13:35:23;;;;;;;2.40;2.20;;;31.60;47.20;;;;;;5086540;27;20265;-95
2021/09/23 13:37:50;;;;;;;2.90;2.30;;;31.50;46.50;;;;;;5046204;27;20211;-95
2021/09/23 13:40:20;;;;;;;2.60;2.40;;;31.50;45.90;;;;;;5069456;27;20230;-95
2021/09/23 13:42:48;;;;;;;2.67;1.93;;;31.70;46.40;;;;;;5039514;27;20232;-95
2021/09/23 13:45:15;;;;;;;3.10;2.53;;;31.90;46.20;;;;;;5034147;28;20224;-95
2021/09/23 13:47:43;;;;;;;3.70;2.90;;;32.20;47.20;;;;;;5041761;27;20305;-94
2021/09/23 13:50:12;;;;;;;3.37;3.07;;;32.00;48.50;;;;;;5075609;27;20238;-96
2021/09/23 13:52:39;;;;;;;4.60;2.73;;;31.80;49.50;;;;;;5042772;27;20227;-94
2021/09/23 13:55:32;;;;;;;2.90;2.70;;;31.10;50.50;;;;;;5042839;27;20192;-93
2021/09/23 13:58:00;;;;;;;3.80;3.50;;;31.10;52.20;;;;;;5066334;27;20709;-93
2021/09/23 14:00:33;;;;;;;3.80;3.50;;;31.30;51.30;;;;;;5062263;27;20637;-95
2021/09/23 14:03:02;;;;;;;5.70;3.40;;;31.00;52.10;;;;;;5044856;27;20662;-95
2021/09/23 14:05:42;;;;;;;2.93;2.70;;;31.00;52.00;;;;;;5076798;27;20705;-94